Time;durP1;ratioP1;P1;durP2;ratioP2;P2;SDS_P1;SDS_P2;PMS_P1;PMS_P2;Temp;Humidity;BMP_temperature;BMP_pressure;BME280_temperature;BME280_humidity;BME280_pressure;Samples;Min_cycle;Max_cycle;Signal;HPM_P1;HPM_P2
2022/07/19 00:00:13;;;;;;;5.97;3.20;;;;;;;22.97;35.76;99678.00;5109588;28;20197;-70
2022/07/19 00:02:41;;;;;;;4.32;2.70;;;;;;;22.59;35.93;99603.53;5116542;28;20063;-70
2022/07/19 00:05:10;;;;;;;3.90;2.45;;;;;;;22.52;36.13;99606.97;5129648;28;20257;-70
2022/07/19 00:07:38;;;;;;;4.07;2.42;;;;;;;22.92;35.93;99668.66;5129190;28;20104;-70
2022/07/19 00:10:07;;;;;;;3.83;1.95;;;;;;;22.78;36.46;99647.59;5129289;28;20055;-70
2022/07/19 00:12:39;;;;;;;5.85;2.33;;;;;;;22.75;36.38;99647.91;5129494;28;20081;-70
2022/07/19 00:15:11;;;;;;;4.20;2.20;;;;;;;22.71;36.26;99647.38;5129223;28;20059;-70
2022/07/19 00:17:41;;;;;;;4.18;2.10;;;;;;;22.82;36.42;99666.03;5129305;28;20254;-70
2022/07/19 00:20:10;;;;;;;4.82;2.17;;;;;;;22.79;36.28;99670.91;5129738;28;20040;-70
2022/07/19 00:22:37;;;;;;;5.53;3.40;;;;;;;22.78;36.46;99680.00;5128919;28;20056;-70
2022/07/19 00:25:07;;;;;;;12.90;10.38;;;;;;;22.56;36.91;99676.78;5129645;28;20096;-70
2022/07/19 00:27:35;;;;;;;13.68;9.23;;;;;;;22.48;36.77;99649.66;5129279;28;20048;-70
2022/07/19 00:30:05;;;;;;;11.55;7.97;;;;;;;22.43;37.51;99651.94;5129277;28;20051;-70
2022/07/19 00:32:33;;;;;;;12.25;9.45;;;;;;;22.60;37.29;99670.06;5129413;28;20084;-70
2022/07/19 00:35:00;;;;;;;7.38;4.75;;;;;;;22.39;36.64;99634.31;5129392;28;20036;-69
2022/07/19 00:37:28;;;;;;;5.25;3.50;;;;;;;22.66;36.65;99664.03;5129066;28;20052;-69
2022/07/19 00:39:55;;;;;;;6.45;3.17;;;;;;;22.66;36.50;99665.88;5129086;28;20096;-69
2022/07/19 00:42:24;;;;;;;5.68;2.63;;;;;;;22.43;36.71;99649.25;5128862;28;20054;-69
2022/07/19 00:44:51;;;;;;;3.55;2.17;;;;;;;22.58;36.46;99660.41;5127389;28;20055;-69
2022/07/19 00:47:21;;;;;;;4.47;2.03;;;;;;;22.36;36.37;99632.78;5128565;28;20291;-70
2022/07/19 00:49:49;;;;;;;4.25;2.40;;;;;;;22.48;36.51;99655.03;5128753;28;20233;-69
2022/07/19 00:52:17;;;;;;;7.07;3.40;;;;;;;22.50;36.50;99663.84;5128913;28;20081;-69
2022/07/19 00:54:46;;;;;;;6.72;4.07;;;;;;;22.52;36.44;99664.53;5128995;28;20056;-69
2022/07/19 00:57:15;;;;;;;5.55;3.08;;;;;;;22.47;36.68;99666.00;5128904;28;20035;-69
2022/07/19 00:59:43;;;;;;;5.03;3.47;;;;;;;22.46;36.52;99664.31;5128820;28;20067;-69
2022/07/19 01:02:12;;;;;;;6.05;4.55;;;;;;;22.46;36.69;99662.44;5128530;28;20227;-69
2022/07/19 01:04:41;;;;;;;7.45;4.60;;;;;;;22.38;37.10;99668.59;5127741;28;20223;-69
2022/07/19 01:07:09;;;;;;;9.15;3.55;;;;;;;22.35;37.36;99662.63;5128155;28;20051;-69
2022/07/19 01:09:38;;;;;;;4.25;2.17;;;;;;;22.27;37.62;99657.16;5128430;28;20168;-69
2022/07/19 01:12:07;;;;;;;5.38;2.78;;;;;;;22.29;37.74;99665.94;5128397;28;20048;-69
2022/07/19 01:14:35;;;;;;;5.75;2.30;;;;;;;22.29;37.44;99655.16;5128366;28;20196;-69
2022/07/19 01:17:03;;;;;;;3.20;2.00;;;;;;;21.64;37.62;99594.97;5128309;28;20055;-69
2022/07/19 01:19:31;;;;;;;4.78;2.00;;;;;;;21.81;37.62;99596.06;5127835;28;20100;-69
2022/07/19 01:22:00;;;;;;;3.22;1.83;;;;;;;22.21;37.51;99652.34;5128036;28;20198;-69
2022/07/19 01:24:27;;;;;;;3.15;1.98;;;;;;;22.21;37.69;99657.75;5128098;28;20055;-69
2022/07/19 01:26:54;;;;;;;5.43;3.80;;;;;;;22.15;38.00;99659.22;5128207;28;20039;-69
2022/07/19 01:29:23;;;;;;;9.45;8.45;;;;;;;22.14;37.73;99654.81;5127830;28;20312;-70
2022/07/19 01:31:50;;;;;;;18.02;13.48;;;;;;;22.06;38.01;99646.63;5127582;28;20055;-70
2022/07/19 01:34:18;;;;;;;14.43;11.73;;;;;;;22.06;38.20;99655.56;5127572;28;20063;-70
2022/07/19 01:36:45;;;;;;;9.55;8.13;;;;;;;21.80;38.03;99613.25;5127881;28;20055;-69
2022/07/19 01:39:13;;;;;;;11.20;8.80;;;;;;;21.97;38.29;99625.94;5127296;28;20077;-69
2022/07/19 01:41:41;;;;;;;8.63;6.40;;;;;;;21.55;38.39;99579.69;5127971;28;20055;-69
2022/07/19 01:44:10;;;;;;;7.15;4.75;;;;;;;21.89;38.55;99624.00;5127584;28;20059;-70
2022/07/19 01:46:37;;;;;;;7.72;4.05;;;;;;;21.91;38.51;99648.97;5127384;28;20085;-69
2022/07/19 01:49:05;;;;;;;3.60;2.00;;;;;;;21.71;39.10;99647.34;5127425;28;20060;-69
2022/07/19 01:51:32;;;;;;;4.53;2.70;;;;;;;21.79;39.40;99650.13;5127627;28;20265;-69
2022/07/19 01:53:59;;;;;;;3.10;2.17;;;;;;;21.81;39.12;99650.88;5127422;28;20112;-69
2022/07/19 01:56:28;;;;;;;4.28;2.25;;;;;;;21.85;38.96;99651.41;5126915;28;20062;-70
2022/07/19 01:58:55;;;;;;;7.55;2.30;;;;;;;21.55;39.62;99633.63;5127493;28;20059;-69
2022/07/19 02:01:22;;;;;;;5.40;2.35;;;;;;;21.68;39.28;99647.63;5127460;28;20326;-69
2022/07/19 02:03:49;;;;;;;5.03;2.83;;;;;;;21.78;39.01;99651.97;5126926;28;20068;-69
2022/07/19 02:06:17;;;;;;;5.40;3.80;;;;;;;21.65;39.31;99627.19;5127948;28;20063;-69
2022/07/19 02:08:44;;;;;;;11.93;10.48;;;;;;;21.81;39.10;99653.56;5129550;28;20258;-69
2022/07/19 02:14:00;;;;;;;11.30;8.73;;;;;;;21.78;39.57;99653.81;5123503;28;20353;-69
2022/07/19 02:16:27;;;;;;;12.95;9.93;;;;;;;21.73;39.48;99658.81;5127828;28;20063;-69
2022/07/19 02:18:55;;;;;;;7.90;6.05;;;;;;;21.71;39.54;99658.13;5126996;28;20051;-69
2022/07/19 02:21:22;;;;;;;6.07;4.15;;;;;;;21.73;39.71;99661.53;5126947;28;20327;-69
2022/07/19 02:23:49;;;;;;;5.05;3.38;;;;;;;21.71;39.76;99660.81;5126646;28;20108;-69
2022/07/19 02:26:16;;;;;;;5.10;3.15;;;;;;;21.52;39.78;99631.22;5126597;28;20055;-69
2022/07/19 02:28:43;;;;;;;4.45;2.90;;;;;;;21.71;39.72;99663.50;5126583;28;20055;-69
2022/07/19 02:31:12;;;;;;;4.80;2.47;;;;;;;21.60;39.37;99642.13;5126665;28;20253;-69
2022/07/19 02:33:39;;;;;;;3.83;2.45;;;;;;;21.69;39.30;99655.56;5108848;28;20108;-69
2022/07/19 02:36:07;;;;;;;4.75;2.50;;;;;;;21.60;39.54;99661.84;5126674;28;20055;-69
2022/07/19 02:38:34;;;;;;;3.70;2.15;;;;;;;21.61;39.75;99660.84;5126540;28;20052;-69
2022/07/19 02:41:01;;;;;;;3.80;2.08;;;;;;;21.59;39.90;99654.75;5126451;28;20311;-69
2022/07/19 02:43:31;;;;;;;3.67;2.10;;;;;;;21.63;39.78;99661.56;5126574;28;20072;-69
2022/07/19 02:45:58;;;;;;;4.30;2.33;;;;;;;21.62;39.94;99669.78;5125911;28;20064;-69
2022/07/19 02:48:27;;;;;;;6.25;3.97;;;;;;;21.56;39.67;99649.66;5126134;28;20361;-69
2022/07/19 02:50:54;;;;;;;11.38;9.07;;;;;;;21.49;39.99;99656.63;5126277;28;20100;-69
2022/07/19 02:53:21;;;;;;;11.65;9.38;;;;;;;21.58;39.74;99668.38;5126694;28;20081;-70
2022/07/19 02:55:48;;;;;;;6.10;4.82;;;;;;;21.56;39.89;99665.84;5126368;28;20059;-70
2022/07/19 02:58:16;;;;;;;6.43;3.10;;;;;;;21.52;39.61;99668.97;5108634;28;20071;-69
2022/07/19 03:00:44;;;;;;;4.30;2.28;;;;;;;21.51;39.80;99672.66;5126379;28;20042;-69
2022/07/19 03:05:57;;;;;;;;;;;;;;;21.19;40.94;99679.28;5126857;28;20136;-69
2022/07/19 03:08:24;;;;;;;3.80;2.40;;;;;;;21.25;40.58;99684.09;5125507;28;19941;-69
2022/07/19 03:10:51;;;;;;;4.10;2.22;;;;;;;21.30;40.36;99687.19;5126106;28;20246;-69
2022/07/19 03:13:19;;;;;;;4.60;2.60;;;;;;;21.28;39.97;99683.78;5126060;28;20265;-69
2022/07/19 03:15:46;;;;;;;4.13;2.42;;;;;;;21.31;39.96;99688.03;5125771;28;20124;-69
2022/07/19 03:18:13;;;;;;;4.70;2.40;;;;;;;21.31;40.20;99693.44;5126001;28;20101;-69
2022/07/19 03:20:42;;;;;;;6.35;2.65;;;;;;;21.32;40.30;99696.00;5108034;28;20059;-69
2022/07/19 03:23:11;;;;;;;4.82;3.75;;;;;;;21.29;40.86;99698.13;5125503;28;20112;-69
2022/07/19 03:25:39;;;;;;;5.68;3.55;;;;;;;21.29;40.38;99698.97;5125657;28;20052;-69
2022/07/19 03:28:06;;;;;;;6.65;3.28;;;;;;;21.30;40.50;99710.59;5125656;28;20056;-69
2022/07/19 03:30:33;;;;;;;9.32;5.22;;;;;;;21.23;40.57;99704.94;5125711;28;20120;-69
2022/07/19 03:33:00;;;;;;;8.23;5.05;;;;;;;21.20;40.72;99716.00;5125775;28;20059;-69
2022/07/19 03:35:28;;;;;;;8.98;5.05;;;;;;;21.22;40.71;99710.47;5107896;28;20120;-68
2022/07/19 03:37:55;;;;;;;6.97;3.50;;;;;;;21.21;40.91;99711.47;5125771;28;20105;-68
2022/07/19 03:40:24;;;;;;;5.53;3.05;;;;;;;21.19;40.88;99706.22;5125603;28;20097;-69
2022/07/19 03:42:51;;;;;;;5.63;2.70;;;;;;;21.16;40.94;99711.91;5125463;28;20112;-68
2022/07/19 03:45:18;;;;;;;7.35;5.05;;;;;;;21.17;41.32;99710.06;5125743;28;20051;-68
2022/07/19 03:47:45;;;;;;;5.85;4.18;;;;;;;21.14;40.80;99708.50;5125624;28;20100;-68
2022/07/19 03:50:12;;;;;;;6.78;3.35;;;;;;;21.13;41.26;99717.56;5125415;28;20112;-68
2022/07/19 03:52:39;;;;;;;4.50;2.17;;;;;;;21.07;41.23;99710.06;5125314;28;20055;-69
2022/07/19 03:55:07;;;;;;;6.03;2.50;;;;;;;21.09;41.36;99710.78;5125963;28;20117;-68
2022/07/19 03:57:36;;;;;;;3.50;2.15;;;;;;;20.96;41.50;99694.00;5125285;28;20060;-69
2022/07/19 04:00:05;;;;;;;4.78;2.10;;;;;;;21.10;41.54;99713.31;5125327;28;20051;-69
2022/07/19 04:02:33;;;;;;;3.33;2.13;;;;;;;21.05;41.45;99715.59;5124750;28;20200;-68
2022/07/19 04:05:00;;;;;;;4.20;2.38;;;;;;;21.03;41.48;99722.13;5125819;28;20042;-69
2022/07/19 04:07:27;;;;;;;3.80;2.35;;;;;;;20.91;41.98;99701.66;5125325;28;20113;-69
2022/07/19 04:09:54;;;;;;;5.10;2.83;;;;;;;20.89;41.75;99706.34;5125282;28;20063;-69
2022/07/19 04:12:21;;;;;;;4.18;2.40;;;;;;;20.54;41.98;99644.97;5125376;28;20238;-69
2022/07/19 04:14:50;;;;;;;4.38;2.60;;;;;;;20.95;42.17;99713.88;5107359;28;20056;-69
2022/07/19 04:17:17;;;;;;;4.07;2.03;;;;;;;21.05;41.57;99729.06;5125413;28;20315;-69
2022/07/19 04:19:45;;;;;;;5.50;2.45;;;;;;;21.05;41.99;99731.75;5129092;28;20249;-69
2022/07/19 04:22:12;;;;;;;3.33;2.13;;;;;;;21.05;42.09;99730.91;5129460;28;20035;-69
2022/07/19 04:24:39;;;;;;;5.32;2.42;;;;;;;20.67;42.22;99688.63;5128838;28;20059;-68
2022/07/19 04:27:06;;;;;;;4.53;2.40;;;;;;;21.07;41.95;99742.41;5128890;28;20311;-68
2022/07/19 04:29:33;;;;;;;5.53;2.38;;;;;;;21.07;42.42;99737.00;5128875;28;20249;-69
2022/07/19 04:32:02;;;;;;;4.82;2.47;;;;;;;21.12;42.40;99727.50;5128659;28;20063;-68
2022/07/19 04:34:29;;;;;;;5.30;2.53;;;;;;;20.97;42.70;99714.56;5128828;28;20063;-68
2022/07/19 04:36:56;;;;;;;4.82;2.90;;;;;;;20.99;42.58;99708.06;5129278;28;20060;-69
2022/07/19 04:39:23;;;;;;;5.00;2.65;;;;;;;21.12;42.48;99732.91;5128371;28;20051;-68
2022/07/19 04:41:50;;;;;;;7.13;2.95;;;;;;;21.11;42.48;99739.28;5128387;28;20055;-69
2022/07/19 04:44:19;;;;;;;4.03;2.60;;;;;;;21.09;42.54;99732.34;5128889;28;20059;-70
2022/07/19 04:46:46;;;;;;;3.85;2.30;;;;;;;20.45;42.43;99620.59;5128760;28;20215;-69
2022/07/19 04:49:15;;;;;;;4.03;3.05;;;;;;;19.84;42.35;99520.38;5128792;28;20040;-69
2022/07/19 04:51:46;;;;;;;4.55;2.80;;;;;;;20.40;42.37;99611.22;5094414;28;20046;-69
2022/07/19 04:54:14;;;;;;;3.40;2.45;;;;;;;19.78;42.09;99555.84;5111100;28;20170;-69
2022/07/19 04:56:41;;;;;;;4.80;2.75;;;;;;;20.72;42.30;99667.50;5110508;28;20069;-69
2022/07/19 04:59:09;;;;;;;4.90;3.58;;;;;;;20.98;42.63;99700.97;5128530;28;20040;-69
2022/07/19 05:01:36;;;;;;;4.93;2.67;;;;;;;20.40;41.83;99601.31;5128723;28;20061;-69
2022/07/19 05:04:04;;;;;;;5.50;2.38;;;;;;;21.21;42.61;99738.44;5127898;28;20327;-69
2022/07/19 05:06:32;;;;;;;6.85;3.28;;;;;;;21.09;42.67;99738.56;5128089;28;20077;-68
2022/07/19 05:09:00;;;;;;;5.53;2.38;;;;;;;21.05;42.55;99741.69;5127710;28;20055;-69
2022/07/19 05:11:27;;;;;;;5.32;2.40;;;;;;;21.13;42.37;99739.13;5127536;28;20108;-69
2022/07/19 05:13:55;;;;;;;4.18;2.40;;;;;;;21.03;42.84;99709.50;5128366;28;20048;-69
2022/07/19 05:16:22;;;;;;;6.72;2.80;;;;;;;21.22;42.66;99730.19;5127956;28;20047;-69
2022/07/19 05:18:49;;;;;;;4.55;2.45;;;;;;;21.10;42.61;99705.25;5128031;28;20043;-69
2022/07/19 05:21:16;;;;;;;6.18;2.50;;;;;;;21.17;42.92;99708.22;5127832;28;20104;-69
2022/07/19 05:23:45;;;;;;;3.78;2.33;;;;;;;21.36;41.91;99715.41;5110333;28;20040;-69
2022/07/19 05:26:12;;;;;;;5.55;2.33;;;;;;;21.37;41.72;99717.97;5128004;28;20055;-68
2022/07/19 05:28:40;;;;;;;6.88;2.50;;;;;;;21.45;41.36;99719.94;5127892;28;20064;-68
2022/07/19 05:31:07;;;;;;;4.15;2.08;;;;;;;21.48;41.16;99724.19;5109348;28;20097;-68
2022/07/19 05:33:34;;;;;;;4.32;1.98;;;;;;;21.52;40.60;99723.75;5127335;28;20104;-68
2022/07/19 05:36:01;;;;;;;2.35;1.55;;;;;;;21.55;40.76;99722.63;5127602;28;20055;-68
2022/07/19 05:38:29;;;;;;;4.38;1.73;;;;;;;;;;5127284;28;20192;-68
2022/07/19 05:40:58;;;;;;;3.35;1.90;;;;;;;21.59;40.71;99714.09;5127316;28;20052;-68
2022/07/19 05:43:25;;;;;;;3.67;1.98;;;;;;;21.62;40.70;99715.66;5127068;28;20063;-68
2022/07/19 05:45:52;;;;;;;3.22;2.13;;;;;;;21.60;40.65;99723.88;5127134;28;20069;-68
2022/07/19 05:48:19;;;;;;;5.47;3.05;;;;;;;21.65;40.70;99724.28;5126965;28;20059;-68
2022/07/19 05:50:46;;;;;;;3.80;1.90;;;;;;;21.60;40.46;99698.75;5127130;28;20089;-68
2022/07/19 05:53:17;;;;;;;4.53;2.38;;;;;;;21.72;40.62;99716.47;5126862;28;20105;-69
2022/07/19 05:55:44;;;;;;;3.40;1.85;;;;;;;21.77;40.61;99712.34;5127219;28;20097;-69
2022/07/19 05:58:12;;;;;;;3.53;1.95;;;;;;;21.78;40.83;99707.78;5127187;28;20059;-68
2022/07/19 06:01:17;;;;;;;2.83;1.90;;;;;;;21.84;40.56;99707.22;5126810;28;20051;-70
2022/07/19 06:03:28;;;;;;;3.45;2.17;;;;;;;21.89;40.50;99717.56;5126055;28;20101;-69
2022/07/19 06:05:55;;;;;;;3.92;2.13;;;;;;;21.93;40.75;99710.88;5109116;28;20043;-70
2022/07/19 06:08:23;;;;;;;7.93;3.35;;;;;;;21.97;40.68;99710.44;5126304;28;20066;-70
2022/07/19 06:10:50;;;;;;;7.28;2.67;;;;;;;22.02;40.65;99713.53;5126797;28;20051;-69
2022/07/19 06:13:18;;;;;;;3.05;1.95;;;;;;;22.03;40.17;99711.69;5126619;28;20113;-70
2022/07/19 06:15:46;;;;;;;4.25;2.03;;;;;;;21.63;40.18;99647.22;5126237;28;20059;-69
2022/07/19 06:18:13;;;;;;;3.13;2.00;;;;;;;21.51;40.29;99607.94;5126726;28;20047;-70
2022/07/19 06:20:40;;;;;;;4.38;2.25;;;;;;;22.06;40.50;99689.81;5126460;28;20112;-69
2022/07/19 06:23:07;;;;;;;10.70;2.55;;;;;;;22.04;40.63;99689.09;5126583;28;20113;-69
2022/07/19 06:25:34;;;;;;;3.85;2.10;;;;;;;22.06;39.69;99682.56;5126631;28;20059;-69
2022/07/19 06:28:02;;;;;;;3.95;2.22;;;;;;;22.27;39.77;99706.59;5126540;28;20055;-69
2022/07/19 06:30:30;;;;;;;4.63;1.92;;;;;;;22.09;39.52;99679.56;5126158;28;20059;-70
2022/07/19 06:32:58;;;;;;;7.53;2.28;;;;;;;22.25;39.83;99686.16;5126602;28;20074;-69
2022/07/19 06:35:25;;;;;;;3.60;2.40;;;;;;;22.45;39.94;99712.06;5125966;28;20266;-69
2022/07/19 06:37:52;;;;;;;2.60;1.73;;;;;;;22.44;39.98;99713.06;5126510;28;20069;-69
2022/07/19 06:40:20;;;;;;;3.85;2.13;;;;;;;22.46;39.97;99712.91;5126067;28;20121;-70
2022/07/19 06:42:47;;;;;;;3.67;2.13;;;;;;;22.52;39.83;99713.16;5125241;28;20055;-69
2022/07/19 06:45:15;;;;;;;3.72;1.95;;;;;;;22.56;39.62;99714.59;5126372;28;20052;-70
2022/07/19 06:47:43;;;;;;;5.30;2.25;;;;;;;22.60;39.55;99715.97;5126187;28;20258;-69
2022/07/19 06:50:10;;;;;;;5.57;2.72;;;;;;;22.67;39.63;99710.81;5126196;28;20052;-70
2022/07/19 06:52:38;;;;;;;2.97;2.10;;;;;;;22.59;39.20;99686.41;5125765;28;20051;-69
2022/07/19 06:55:06;;;;;;;4.85;2.40;;;;;;;22.56;39.31;99659.72;5125937;28;20112;-69
2022/07/19 06:57:33;;;;;;;3.78;2.30;;;;;;;22.89;39.42;99714.91;5125924;28;20063;-70
2022/07/19 07:00:00;;;;;;;6.25;2.83;;;;;;;22.99;39.00;99713.81;5125908;28;20107;-69
2022/07/19 07:02:27;;;;;;;5.47;2.58;;;;;;;23.13;38.86;99714.28;5125456;28;20052;-70
2022/07/19 07:04:56;;;;;;;5.97;2.40;;;;;;;23.28;38.47;99691.13;5125972;28;20073;-69
2022/07/19 07:07:23;;;;;;;3.22;2.40;;;;;;;23.49;38.42;99713.25;5125795;28;20059;-69
2022/07/19 07:09:51;;;;;;;6.35;2.85;;;;;;;23.66;37.98;99706.06;5125820;28;20052;-70
2022/07/19 07:12:19;;;;;;;4.47;2.83;;;;;;;23.81;37.75;99704.47;5125697;28;20073;-70
2022/07/19 07:14:46;;;;;;;4.55;2.55;;;;;;;24.14;37.21;99707.38;5125749;28;20059;-70
2022/07/19 07:17:13;;;;;;;5.22;2.50;;;;;;;24.17;37.49;99704.34;5125861;28;20259;-70
2022/07/19 07:19:40;;;;;;;3.63;1.95;;;;;;;24.42;36.91;99706.13;5125493;28;20055;-70
2022/07/19 07:22:13;;;;;;;3.47;2.20;;;;;;;24.46;36.55;99684.97;5125908;28;20089;-69
2022/07/19 07:24:40;;;;;;;4.90;2.38;;;;;;;24.23;36.30;99646.81;5125387;28;20108;-70
2022/07/19 07:27:07;;;;;;;3.63;2.17;;;;;;;24.64;36.23;99678.41;5125807;28;20052;-70
2022/07/19 07:29:34;;;;;;;3.50;2.10;;;;;;;25.11;35.65;99691.38;5125672;28;20055;-69
2022/07/19 07:32:02;;;;;;;4.80;2.10;;;;;;;25.02;35.68;99634.59;5125699;28;20063;-70
2022/07/19 07:34:30;;;;;;;5.82;2.70;;;;;;;25.44;35.13;99694.94;5125240;28;20097;-69
2022/07/19 07:36:57;;;;;;;5.53;2.63;;;;;;;25.62;35.04;99689.31;5124958;28;20055;-69
2022/07/19 07:39:26;;;;;;;4.57;2.60;;;;;;;25.86;34.50;99693.84;5125275;28;20105;-69
2022/07/19 07:41:53;;;;;;;7.82;3.42;;;;;;;26.08;33.90;99692.25;5125488;28;20112;-69
2022/07/19 07:44:21;;;;;;;6.03;3.17;;;;;;;25.79;33.93;99595.97;5125769;28;20211;-69
2022/07/19 07:46:48;;;;;;;9.50;3.05;;;;;;;26.51;33.80;99688.13;5107523;28;20188;-69
2022/07/19 07:49:15;;;;;;;7.45;2.83;;;;;;;26.63;33.17;99691.34;5125331;28;20115;-69
2022/07/19 07:51:42;;;;;;;5.55;2.63;;;;;;;26.65;33.62;99695.56;5125553;28;20311;-70
2022/07/19 07:54:10;;;;;;;5.15;2.50;;;;;;;26.93;33.04;99690.44;5128518;28;20171;-70
2022/07/19 07:56:39;;;;;;;7.97;2.85;;;;;;;26.94;33.09;99666.81;5129571;28;20063;-70
2022/07/19 07:59:06;;;;;;;8.95;2.70;;;;;;;27.32;32.33;99686.75;5129494;28;20081;-70
2022/07/19 08:01:34;;;;;;;5.00;3.00;;;;;;;27.46;32.28;99691.38;5129383;28;20200;-69
2022/07/19 08:04:02;;;;;;;6.28;2.42;;;;;;;27.65;31.34;99687.28;5128996;28;20376;-70
2022/07/19 08:06:29;;;;;;;4.72;2.75;;;;;;;27.79;31.14;99683.72;5129046;28;20051;-70
2022/07/19 08:08:57;;;;;;;3.45;2.13;;;;;;;27.75;31.26;99674.25;5129055;28;20108;-70
2022/07/19 08:11:24;;;;;;;5.55;2.47;;;;;;;27.83;31.27;99667.88;5128948;28;20047;-70
2022/07/19 08:13:53;;;;;;;10.13;2.88;;;;;;;28.12;31.11;99673.31;5129258;28;20056;-70
2022/07/19 08:16:20;;;;;;;5.53;2.55;;;;;;;27.89;30.47;99599.06;5129128;28;20075;-70
2022/07/19 08:18:47;;;;;;;7.63;3.20;;;;;;;28.51;30.65;99673.00;5128638;28;20051;-69
2022/07/19 08:21:14;;;;;;;5.90;2.95;;;;;;;28.47;30.62;99657.22;5128850;28;20105;-70
2022/07/19 08:23:42;;;;;;;5.68;2.72;;;;;;;28.47;30.02;99636.25;5128953;28;20063;-70
2022/07/19 08:26:10;;;;;;;6.68;2.90;;;;;;;28.70;29.80;99671.53;5129040;28;20315;-70
2022/07/19 08:28:37;;;;;;;4.85;2.28;;;;;;;28.52;30.38;99684.75;5128976;28;20108;-70
2022/07/19 08:31:06;;;;;;;7.45;3.20;;;;;;;28.66;29.97;99675.66;5128228;28;20116;-70
2022/07/19 08:33:33;;;;;;;5.65;2.47;;;;;;;28.67;30.40;99653.66;5128889;28;20312;-70
2022/07/19 08:36:00;;;;;;;9.45;2.80;;;;;;;29.07;30.38;99671.28;5128944;28;20299;-70
2022/07/19 08:38:28;;;;;;;5.00;2.58;;;;;;;29.34;29.38;99661.44;5128704;28;20099;-70
2022/07/19 08:40:55;;;;;;;6.00;2.95;;;;;;;29.18;30.08;99671.78;5128688;28;20104;-70
2022/07/19 08:43:22;;;;;;;9.50;2.95;;;;;;;29.25;30.25;99659.06;5128255;28;20047;-70
2022/07/19 08:45:50;;;;;;;4.85;2.45;;;;;;;29.44;29.81;99665.69;5128279;28;20051;-70
2022/07/19 08:48:19;;;;;;;7.95;3.10;;;;;;;29.72;29.03;99663.81;5128685;28;20252;-70
2022/07/19 08:50:47;;;;;;;5.50;2.75;;;;;;;29.44;28.26;99590.09;5128180;28;20056;-70
2022/07/19 08:53:15;;;;;;;5.82;2.55;;;;;;;29.84;27.90;99662.22;5128229;28;20373;-70
2022/07/19 08:55:43;;;;;;;5.75;2.50;;;;;;;30.07;27.63;99661.91;5128069;28;20052;-70
2022/07/19 08:58:09;;;;;;;4.88;2.30;;;;;;;30.19;28.00;99654.00;5128464;28;20108;-70
2022/07/19 09:00:36;;;;;;;8.68;2.15;;;;;;;30.29;27.43;99659.97;5127778;28;20056;-70
2022/07/19 09:03:05;;;;;;;7.50;2.83;;;;;;;30.26;27.41;99660.38;5128297;28;20066;-70
2022/07/19 09:05:35;;;;;;;5.65;1.90;;;;;;;30.07;27.30;99640.06;5127288;28;20056;-69
2022/07/19 09:08:11;;;;;;;3.55;2.20;;;;;;;30.22;27.10;99657.22;5128392;28;20302;-70
2022/07/19 09:10:40;;;;;;;7.03;2.38;;;;;;;30.42;27.39;99648.22;5128082;28;20055;-70
2022/07/19 09:13:09;;;;;;;5.40;2.00;;;;;;;30.62;26.81;99647.25;5127630;28;20063;-69
2022/07/19 09:15:38;;;;;;;4.53;2.05;;;;;;;30.64;26.26;99656.06;5128139;28;20051;-70
2022/07/19 09:18:07;;;;;;;4.75;2.15;;;;;;;30.90;26.37;99655.31;5127558;28;20109;-70
2022/07/19 09:20:41;;;;;;;3.28;1.85;;;;;;;30.90;25.64;99638.06;5127688;28;20055;-70
2022/07/19 09:23:08;;;;;;;;;;;;;;;30.84;25.14;99647.09;5128213;28;20047;-70
2022/07/19 09:25:37;;;;;;;6.20;2.38;;;;;;;31.04;26.37;99631.53;5127928;28;19915;-70
2022/07/19 09:28:05;;;;;;;5.45;2.22;;;;;;;31.18;25.80;99625.00;5127913;28;20100;-70
2022/07/19 09:30:37;;;;;;;5.10;2.05;;;;;;;31.40;24.08;99641.22;5127732;28;20055;-70
2022/07/19 09:33:12;;;;;;;4.78;1.80;;;;;;;31.34;23.71;99637.44;5127496;28;20204;-70
2022/07/19 09:35:44;;;;;;;2.63;1.80;;;;;;;31.35;24.72;99630.91;5109581;28;20112;-70
2022/07/19 09:38:23;;;;;;;4.88;2.25;;;;;;;31.23;23.57;99594.25;5128396;28;20043;-70
2022/07/19 09:40:52;;;;;;;7.18;3.15;;;;;;;31.39;24.26;99636.81;5109706;28;20047;-70
2022/07/19 09:43:22;;;;;;;7.20;2.10;;;;;;;31.00;24.33;99608.38;5127108;28;20051;-70
2022/07/19 09:45:50;;;;;;;3.63;1.98;;;;;;;31.22;25.41;99630.91;5126908;28;20051;-69
2022/07/19 09:48:18;;;;;;;4.85;2.05;;;;;;;31.45;25.39;99628.59;5126744;28;20064;-70
2022/07/19 09:50:59;;;;;;;3.03;1.63;;;;;;;31.77;24.02;99613.16;5127111;28;20051;-70
2022/07/19 09:53:26;;;;;;;3.03;2.17;;;;;;;31.88;24.63;99617.13;5127143;28;20056;-70
2022/07/19 09:55:54;;;;;;;7.45;1.95;;;;;;;31.67;24.12;99618.22;5127247;28;20044;-70
2022/07/19 09:58:21;;;;;;;4.07;1.88;;;;;;;31.67;23.83;99620.97;5126851;28;20052;-70
2022/07/19 10:00:49;;;;;;;6.25;2.38;;;;;;;31.43;24.28;99564.13;5126833;28;20055;-69
2022/07/19 10:03:17;;;;;;;5.85;2.30;;;;;;;31.43;24.84;99617.00;5126845;28;20116;-71
2022/07/19 10:05:44;;;;;;;6.07;1.90;;;;;;;31.48;24.51;99606.25;5127387;28;20039;-70
2022/07/19 10:08:13;;;;;;;6.20;2.05;;;;;;;31.66;24.41;99600.09;5126944;28;20207;-71
2022/07/19 10:10:41;;;;;;;3.58;2.38;;;;;;;31.91;24.58;99611.22;5127322;28;20113;-71
2022/07/19 10:13:08;;;;;;;2.80;1.77;;;;;;;31.91;24.03;99581.06;5110208;28;20096;-71
2022/07/19 10:15:44;;;;;;;5.00;2.35;;;;;;;32.08;23.61;99601.44;5126695;28;20055;-70
2022/07/19 10:18:15;;;;;;;4.25;2.22;;;;;;;31.88;23.67;99598.78;5126381;28;20051;-71
2022/07/19 10:20:46;;;;;;;5.43;2.55;;;;;;;31.70;23.60;99587.66;5126380;28;20062;-71
2022/07/19 10:23:16;;;;;;;3.70;2.10;;;;;;;31.83;23.86;99595.84;5126604;28;20365;-71
2022/07/19 10:25:47;;;;;;;5.00;2.28;;;;;;;31.93;23.60;99598.97;5126883;28;20055;-71
2022/07/19 10:28:28;;;;;;;4.72;2.55;;;;;;;31.80;23.29;99559.81;5126890;28;20055;-71
2022/07/19 10:30:56;;;;;;;5.88;2.10;;;;;;;31.83;24.12;99590.38;5126541;28;20047;-71
2022/07/19 10:33:28;;;;;;;3.50;1.83;;;;;;;31.99;23.43;99580.81;5126553;28;20063;-71
2022/07/19 10:35:56;;;;;;;5.60;1.83;;;;;;;32.02;23.35;99569.41;5126669;28;20055;-71
2022/07/19 10:38:26;;;;;;;5.28;2.22;;;;;;;31.90;23.20;99558.31;5126481;28;20311;-71
2022/07/19 10:40:58;;;;;;;3.90;1.80;;;;;;;32.20;24.27;99588.72;5126179;28;20097;-71
2022/07/19 10:43:27;;;;;;;7.68;2.10;;;;;;;31.93;24.09;99529.63;5126227;28;20059;-71
2022/07/19 10:46:13;;;;;;;2.65;1.60;;;;;;;32.23;22.97;99587.44;5126160;28;20059;-71
2022/07/19 10:48:42;;;;;;;4.65;2.28;;;;;;;31.77;23.56;99520.00;5126658;28;20311;-70
2022/07/19 10:51:27;;;;;;;2.92;1.98;;;;;;;32.03;23.43;99575.75;5108871;28;20062;-70
2022/07/19 10:54:05;;;;;;;3.22;2.00;;;;;;;32.14;23.76;99581.38;5126282;28;20055;-71
2022/07/19 10:56:56;;;;;;;4.05;2.05;;;;;;;32.20;23.35;99561.31;5126477;28;20039;-72
2022/07/19 10:59:34;;;;;;;3.35;1.85;;;;;;;32.13;22.35;99544.06;5126006;28;20051;-71
2022/07/19 11:02:03;;;;;;;3.40;2.25;;;;;;;32.41;24.03;99581.25;5125638;28;20211;-71
2022/07/19 11:04:33;;;;;;;3.83;1.75;;;;;;;32.47;23.23;99578.47;5126130;28;20055;-70
2022/07/19 11:07:18;;;;;;;3.83;2.30;;;;;;;32.40;23.07;99576.84;5108906;28;20195;-70
2022/07/19 11:09:54;;;;;;;5.45;2.20;;;;;;;32.54;22.83;99590.25;5126830;28;20058;-71
2022/07/19 11:12:33;;;;;;;4.00;1.92;;;;;;;32.64;22.31;99577.94;5126150;28;20061;-69
2022/07/19 11:15:04;;;;;;;3.60;2.17;;;;;;;32.44;22.41;99573.44;5125849;28;20115;-70
2022/07/19 11:17:31;;;;;;;3.15;2.00;;;;;;;32.46;22.51;99571.31;5125570;28;20380;-70
2022/07/19 11:20:08;;;;;;;3.70;1.90;;;;;;;32.39;22.70;99570.50;5125565;28;20056;-69
2022/07/19 11:22:37;;;;;;;3.72;2.00;;;;;;;32.25;23.13;99536.81;5125205;28;20056;-70
2022/07/19 11:25:07;;;;;;;4.53;2.40;;;;;;;32.62;22.86;99569.09;5126205;28;20056;-70
2022/07/19 11:27:36;;;;;;;3.80;2.25;;;;;;;32.41;22.53;99516.28;5124081;28;20055;-70
2022/07/19 11:30:06;;;;;;;4.20;2.10;;;;;;;32.72;21.91;99562.03;5125348;28;20052;-69
2022/07/19 11:32:34;;;;;;;4.38;2.70;;;;;;;32.61;22.67;99560.03;5125678;28;20052;-68
2022/07/19 11:35:04;;;;;;;4.43;2.67;;;;;;;32.29;22.07;99548.22;5125595;28;20039;-68
2022/07/19 11:37:33;;;;;;;5.88;3.15;;;;;;;31.61;24.15;99501.28;5125546;28;20058;-69
2022/07/19 11:40:01;;;;;;;5.07;2.85;;;;;;;31.52;24.55;99481.50;5125101;28;20048;-70
2022/07/19 11:42:45;;;;;;;10.82;7.63;;;;;;;31.87;25.96;99553.25;5107828;28;20048;-68
2022/07/19 11:45:15;;;;;;;;;;;;;;;31.67;27.09;99551.63;5126345;28;20067;-70